createdAt,value
2022-07-25T00:01:38.440Z,16.45
2022-07-25T00:06:43.972Z,16.32
2022-07-25T00:11:47.572Z,15.78
2022-07-25T00:16:51.100Z,15.92
2022-07-25T00:21:56.019Z,16.27
2022-07-25T00:26:59.843Z,16.29
2022-07-25T00:32:03.445Z,16.04
2022-07-25T00:37:08.520Z,16.06
2022-07-25T00:42:12.072Z,15.98
2022-07-25T00:47:15.629Z,15.78
2022-07-25T00:52:21.112Z,15.78
2022-07-25T00:57:24.715Z,15.64
2022-07-25T01:02:28.359Z,15.61
2022-07-25T01:07:34.022Z,15.46
2022-07-25T01:12:49.677Z,15.69
2022-07-25T01:17:53.533Z,15.69
2022-07-25T01:22:59.517Z,15.64
2022-07-25T01:28:03.378Z,15.65
2022-07-25T01:33:07.381Z,15.67
2022-07-25T01:38:12.901Z,15.57
2022-07-25T01:43:16.491Z,15.42
2022-07-25T01:48:20.127Z,15.29
2022-07-25T01:53:25.071Z,15.33
2022-07-25T01:58:29.758Z,15.20
2022-07-25T02:03:33.852Z,15.03
2022-07-25T02:08:39.144Z,15.18
2022-07-25T02:13:42.738Z,14.99
2022-07-25T02:18:47.739Z,15.03
2022-07-25T02:23:53.559Z,14.91
2022-07-25T02:28:57.181Z,15.01
2022-07-25T02:34:00.609Z,14.79
2022-07-25T02:39:06.015Z,14.69
2022-07-25T02:44:10.102Z,14.77
2022-07-25T02:49:14.132Z,14.64
2022-07-25T02:54:21.066Z,14.62
2022-07-25T02:59:24.736Z,14.58
2022-07-25T03:04:35.664Z,14.67
2022-07-25T03:09:40.606Z,14.61
2022-07-25T03:14:44.044Z,14.58
2022-07-25T03:19:47.601Z,14.64
2022-07-25T03:24:53.538Z,14.59
2022-07-25T03:29:57.234Z,14.56
2022-07-25T03:35:00.815Z,14.73
2022-07-25T03:40:07.144Z,14.76
2022-07-25T03:45:11.711Z,14.70
2022-07-25T03:50:15.363Z,14.69
2022-07-25T03:55:20.415Z,14.67
2022-07-25T04:00:25.160Z,14.60
2022-07-25T04:05:30.180Z,14.91
2022-07-25T04:10:35.300Z,14.99
2022-07-25T04:15:39.056Z,15.09
2022-07-25T04:20:42.892Z,15.17
2022-07-25T04:25:47.869Z,15.30
2022-07-25T04:30:51.625Z,15.39
2022-07-25T04:35:55.166Z,15.54
2022-07-25T04:41:00.265Z,15.70
2022-07-25T04:46:04.351Z,15.82
2022-07-25T04:51:08.408Z,16.06
2022-07-25T04:56:13.495Z,16.19
2022-07-25T05:01:17.311Z,16.41
2022-07-25T05:06:20.958Z,16.72
2022-07-25T05:11:25.982Z,16.77
2022-07-25T05:16:30.440Z,17.11
2022-07-25T05:21:34.092Z,17.49
2022-07-25T05:26:39.252Z,18.12
2022-07-25T05:31:43.087Z,18.40
2022-07-25T05:36:47.570Z,18.60
2022-07-25T05:41:52.892Z,19.09
2022-07-25T05:46:56.875Z,19.54
2022-07-25T05:52:00.770Z,20.34
2022-07-25T05:57:06.428Z,21.61
2022-07-25T06:02:10.344Z,23.07
2022-07-25T06:07:16.958Z,23.39
2022-07-25T06:12:24.328Z,23.95
2022-07-25T06:17:32.349Z,24.99
2022-07-25T06:22:36.303Z,27.83
2022-07-25T06:27:41.845Z,29.69
2022-07-25T06:32:45.711Z,30.97
2022-07-25T06:37:49.291Z,31.82
2022-07-25T06:42:54.674Z,32.24
2022-07-25T06:47:58.851Z,33.15
2022-07-25T06:53:02.546Z,33.21
2022-07-25T06:58:07.586Z,33.05
2022-07-25T07:03:11.531Z,34.73
2022-07-25T07:08:15.229Z,35.47
2022-07-25T07:13:24.167Z,34.99
2022-07-25T07:18:28.568Z,34.22
2022-07-25T07:23:32.371Z,33.15
2022-07-25T07:28:38.248Z,32.82
2022-07-25T07:33:41.852Z,32.55
2022-07-25T07:38:45.753Z,32.78
2022-07-25T07:43:51.631Z,32.44
2022-07-25T07:48:56.231Z,32.73
2022-07-25T07:54:17.587Z,32.61
2022-07-25T07:59:23.504Z,32.84
2022-07-25T08:04:27.294Z,32.58
2022-07-25T08:09:31.200Z,33.27
2022-07-25T08:14:36.788Z,32.52
2022-07-25T08:19:40.702Z,32.53
2022-07-25T08:24:44.475Z,33.03
2022-07-25T08:29:49.559Z,33.11
2022-07-25T08:34:53.548Z,33.20
2022-07-25T08:39:57.503Z,33.09
2022-07-25T08:45:08.362Z,33.21
2022-07-25T08:50:13.917Z,32.86
2022-07-25T08:55:20.603Z,33.05
2022-07-25T09:00:29.065Z,33.85
2022-07-25T09:05:33.699Z,33.65
2022-07-25T09:10:42.797Z,33.86
2022-07-25T09:15:50.349Z,34.39
2022-07-25T09:20:58.772Z,34.55
2022-07-25T09:26:06.576Z,33.88
2022-07-25T09:31:12.293Z,34.96
2022-07-25T09:36:17.161Z,35.18
2022-07-25T09:41:21.128Z,35.29
2022-07-25T09:46:31.992Z,35.13
2022-07-25T09:51:35.987Z,35.31
2022-07-25T09:56:40.023Z,35.48
2022-07-25T10:01:57.727Z,35.36
2022-07-25T10:07:07.631Z,35.88
2022-07-25T10:12:12.899Z,36.16
2022-07-25T10:17:23.130Z,35.66
2022-07-25T10:22:55.296Z,36.15
2022-07-25T10:28:08.406Z,36.16
2022-07-25T10:33:16.337Z,35.70
2022-07-25T10:38:25.980Z,36.10
2022-07-25T10:43:30.058Z,36.47
2022-07-25T10:48:35.362Z,36.16
2022-07-25T10:53:40.234Z,36.37
2022-07-25T10:58:46.241Z,35.95
2022-07-25T11:03:52.273Z,35.69
2022-07-25T11:08:57.957Z,36.81
2022-07-25T11:14:02.578Z,36.60
2022-07-25T11:19:17.443Z,37.18
2022-07-25T11:24:21.275Z,37.26
2022-07-25T11:29:28.031Z,37.25
2022-07-25T11:34:36.214Z,37.21
2022-07-25T11:39:44.239Z,36.09
2022-07-25T11:44:50.553Z,36.39
2022-07-25T11:49:58.430Z,36.35
2022-07-25T11:55:04.760Z,37.07
2022-07-25T12:00:12.676Z,37.58
2022-07-25T12:05:20.593Z,37.86
2022-07-25T12:10:25.867Z,37.52
2022-07-25T12:15:31.556Z,36.87
2022-07-25T12:20:39.984Z,37.00
2022-07-25T12:25:45.757Z,36.65
2022-07-25T12:30:56.267Z,38.36
2022-07-25T12:36:06.604Z,38.63
2022-07-25T12:41:17.458Z,38.74
2022-07-25T12:46:22.149Z,38.46
2022-07-25T12:51:27.116Z,37.39
2022-07-25T12:56:31.118Z,36.61
2022-07-25T13:01:35.042Z,36.68
2022-07-25T13:06:40.319Z,37.11
2022-07-25T13:11:43.887Z,36.96
2022-07-25T13:16:48.907Z,37.83
2022-07-25T13:21:54.312Z,37.50
2022-07-25T13:26:58.034Z,37.10
2022-07-25T13:32:02.177Z,36.62
2022-07-25T13:37:07.127Z,36.31
2022-07-25T13:42:11.279Z,36.22
2022-07-25T13:47:15.002Z,36.21
2022-07-25T13:52:20.358Z,36.00
2022-07-25T13:57:24.031Z,35.97
2022-07-25T14:02:27.584Z,36.62
2022-07-25T14:07:32.340Z,36.56
2022-07-25T14:12:36.257Z,36.87
2022-07-25T14:17:39.952Z,36.54
2022-07-25T14:22:44.984Z,35.74
2022-07-25T14:27:48.564Z,36.04
2022-07-25T14:32:52.310Z,35.95
2022-07-25T14:37:57.355Z,35.96
2022-07-25T14:43:01.562Z,35.46
2022-07-25T14:48:06.869Z,35.05
2022-07-25T14:53:12.922Z,34.30
2022-07-25T14:58:16.604Z,34.24
2022-07-25T15:03:20.368Z,34.41
2022-07-25T15:08:25.365Z,34.43
2022-07-25T15:13:31.392Z,34.65
2022-07-25T15:18:52.247Z,34.89
2022-07-25T15:24:00.790Z,34.70
2022-07-25T15:29:07.774Z,32.85
2022-07-25T15:34:12.819Z,33.16
2022-07-25T15:39:19.678Z,31.96
2022-07-25T15:44:23.250Z,31.96
2022-07-25T15:49:27.253Z,32.11
2022-07-25T15:54:32.439Z,31.39
2022-07-25T15:59:37.508Z,31.01
2022-07-25T16:04:42.711Z,30.82
2022-07-25T16:09:48.299Z,30.69
2022-07-25T16:14:52.133Z,30.60
2022-07-25T16:19:55.873Z,29.52
2022-07-25T16:25:03.068Z,30.13
2022-07-25T16:30:08.199Z,29.53
2022-07-25T16:35:11.913Z,30.66
2022-07-25T16:40:17.970Z,29.56
2022-07-25T16:45:22.334Z,29.06
2022-07-25T16:50:25.992Z,28.73
2022-07-25T16:55:31.311Z,28.33
2022-07-25T17:00:35.145Z,29.18
2022-07-25T17:05:38.931Z,28.46
2022-07-25T17:10:44.581Z,28.46
2022-07-25T17:15:48.530Z,28.36
2022-07-25T17:20:53.223Z,28.45
2022-07-25T17:25:58.514Z,28.33
2022-07-25T17:31:02.312Z,28.10
2022-07-25T17:36:06.945Z,27.97
2022-07-25T17:41:11.913Z,27.74
2022-07-25T17:46:15.534Z,27.39
2022-07-25T17:51:19.257Z,26.87
2022-07-25T17:56:24.618Z,26.67
2022-07-25T18:01:28.534Z,26.88
2022-07-25T18:06:32.350Z,26.53
2022-07-25T18:11:37.613Z,26.34
2022-07-25T18:16:41.910Z,26.09
2022-07-25T18:21:46.685Z,25.99
2022-07-25T18:26:51.615Z,25.86
2022-07-25T18:31:55.282Z,25.81
2022-07-25T18:36:58.946Z,25.88
2022-07-25T18:42:03.783Z,25.99
2022-07-25T18:47:07.363Z,25.84
2022-07-25T18:52:10.743Z,26.30
2022-07-25T18:57:15.801Z,26.09
2022-07-25T19:02:19.471Z,26.28
2022-07-25T19:07:23.031Z,25.95
2022-07-25T19:12:28.337Z,24.98
2022-07-25T19:17:33.419Z,24.77
2022-07-25T19:22:37.265Z,24.49
2022-07-25T19:27:43.019Z,24.95
2022-07-25T19:32:47.790Z,24.58
2022-07-25T19:37:51.435Z,24.50
2022-07-25T19:42:56.258Z,24.18
2022-07-25T19:48:00.997Z,24.37
2022-07-25T19:53:04.594Z,24.85
2022-07-25T19:58:10.400Z,24.95
2022-07-25T20:03:14.198Z,25.02
2022-07-25T20:08:18.788Z,24.88
2022-07-25T20:13:23.806Z,24.62
2022-07-25T20:18:27.470Z,24.61
2022-07-25T20:23:31.330Z,24.23
2022-07-25T20:28:36.419Z,24.05
2022-07-25T20:33:40.390Z,23.99
2022-07-25T20:38:46.176Z,23.93
2022-07-25T20:43:53.553Z,23.77
2022-07-25T20:48:57.742Z,23.71
2022-07-25T20:54:01.481Z,23.57
2022-07-25T20:59:07.093Z,23.64
2022-07-25T21:04:10.934Z,23.57
2022-07-25T21:09:14.593Z,23.47
2022-07-25T21:14:19.416Z,23.37
2022-07-25T21:19:23.131Z,23.37
2022-07-25T21:24:26.574Z,23.40
2022-07-25T21:29:31.519Z,23.29
2022-07-25T21:34:35.082Z,23.13
2022-07-25T21:39:39.173Z,23.16
2022-07-25T21:44:45.783Z,22.93
2022-07-25T21:50:07.120Z,22.99
2022-07-25T21:55:10.849Z,22.82
2022-07-25T22:00:16.729Z,22.66
2022-07-25T22:05:20.741Z,22.69
2022-07-25T22:10:24.479Z,22.52
2022-07-25T22:15:29.516Z,22.43
2022-07-25T22:20:33.157Z,22.36
2022-07-25T22:25:37.265Z,22.32
2022-07-25T22:30:42.543Z,22.12
2022-07-25T22:35:46.339Z,22.08
2022-07-25T22:40:50.402Z,21.99
2022-07-25T22:45:55.507Z,22.16
2022-07-25T22:50:59.375Z,22.12
2022-07-25T22:56:03.185Z,22.08
2022-07-25T23:01:08.254Z,22.17
2022-07-25T23:06:12.952Z,21.71
2022-07-25T23:11:17.013Z,21.76
2022-07-25T23:16:22.151Z,21.54
2022-07-25T23:21:26.213Z,21.51
2022-07-25T23:26:30.038Z,21.50
2022-07-25T23:31:35.492Z,21.49
2022-07-25T23:36:39.246Z,21.59
2022-07-25T23:41:42.911Z,21.46
2022-07-25T23:46:47.922Z,21.57
2022-07-25T23:51:51.713Z,21.53
2022-07-25T23:56:55.339Z,21.34
